createdAt,value
2022-10-30T00:04:48.172Z,6.90
2022-10-30T00:09:49.399Z,5.90
2022-10-30T00:14:52.434Z,5.97
2022-10-30T00:19:53.656Z,6.10
2022-10-30T00:24:54.904Z,5.97
2022-10-30T00:29:56.175Z,6.07
2022-10-30T00:34:57.386Z,6.53
2022-10-30T00:39:58.625Z,5.82
2022-10-30T00:44:59.850Z,5.40
2022-10-30T00:50:05.393Z,6.47
2022-10-30T00:55:09.787Z,5.63
2022-10-30T01:00:11.752Z,5.57
2022-10-30T01:05:16.003Z,5.53
2022-10-30T01:10:17.458Z,5.70
2022-10-30T01:15:23.002Z,6.27
2022-10-30T01:20:31.218Z,6.35
2022-10-30T01:25:47.109Z,5.80
2022-10-30T01:30:57.159Z,5.53
2022-10-30T01:35:58.415Z,6.03
2022-10-30T01:40:59.719Z,5.75
2022-10-30T01:46:00.996Z,5.37
2022-10-30T01:51:21.042Z,5.07
2022-10-30T01:56:37.622Z,4.83
2022-10-30T02:01:39.753Z,5.20
2022-10-30T02:06:41.347Z,5.93
2022-10-30T02:11:43.350Z,5.43
2022-10-30T02:16:45.918Z,5.57
2022-10-30T02:21:47.267Z,5.32
2022-10-30T02:26:48.519Z,5.53
2022-10-30T02:31:49.788Z,5.72
2022-10-30T02:36:51.020Z,5.25
2022-10-30T02:41:52.266Z,5.50
2022-10-30T02:46:53.508Z,5.40
2022-10-30T02:51:54.838Z,5.03
2022-10-30T02:56:56.064Z,5.50
2022-10-30T03:01:57.377Z,5.28
2022-10-30T03:06:58.647Z,5.30
2022-10-30T03:11:59.878Z,4.95
2022-10-30T03:17:01.119Z,5.15
2022-10-30T03:22:02.481Z,4.50
2022-10-30T03:27:03.783Z,5.03
2022-10-30T03:32:08.384Z,4.70
2022-10-30T03:37:09.598Z,4.63
2022-10-30T03:42:10.814Z,4.18
2022-10-30T03:52:18.253Z,4.10
2022-10-30T03:57:19.466Z,4.00
2022-10-30T04:02:20.753Z,4.40
2022-10-30T04:07:22.000Z,4.28
2022-10-30T04:12:23.257Z,3.80
2022-10-30T04:17:24.496Z,4.00
2022-10-30T04:22:26.084Z,3.92
2022-10-30T04:27:27.332Z,4.37
2022-10-30T04:32:28.566Z,3.80
2022-10-30T04:37:30.440Z,3.72
2022-10-30T04:42:31.665Z,4.40
2022-10-30T04:52:39.395Z,3.97
2022-10-30T04:57:40.647Z,3.27
2022-10-30T05:02:41.957Z,3.17
2022-10-30T05:07:43.340Z,3.63
2022-10-30T05:12:45.426Z,4.03
2022-10-30T05:17:50.533Z,3.92
2022-10-30T05:22:54.998Z,3.70
2022-10-30T05:28:00.302Z,3.78
2022-10-30T05:33:02.752Z,3.47
2022-10-30T05:38:05.665Z,3.70
2022-10-30T05:43:07.043Z,3.95
2022-10-30T05:48:08.350Z,4.13
2022-10-30T05:53:09.973Z,3.55
2022-10-30T05:58:11.219Z,3.47
2022-10-30T06:03:13.071Z,3.78
2022-10-30T06:08:16.229Z,3.75
2022-10-30T06:13:17.493Z,3.43
2022-10-30T06:18:18.714Z,4.20
2022-10-30T06:23:19.932Z,4.07
2022-10-30T06:28:21.204Z,3.22
2022-10-30T06:33:22.504Z,3.45
2022-10-30T06:38:23.820Z,4.10
2022-10-30T06:43:25.072Z,3.60
2022-10-30T06:48:26.285Z,4.50
2022-10-30T06:53:27.550Z,3.42
2022-10-30T06:58:28.846Z,3.40
2022-10-30T07:03:30.084Z,3.93
2022-10-30T07:08:31.376Z,3.45
2022-10-30T07:13:32.598Z,3.40
2022-10-30T07:18:33.873Z,3.10
2022-10-30T07:23:35.089Z,3.92
2022-10-30T07:28:36.299Z,3.90
2022-10-30T07:33:37.527Z,4.18
2022-10-30T07:38:38.773Z,4.22
2022-10-30T07:43:40.054Z,4.00
2022-10-30T07:48:41.278Z,3.88
2022-10-30T07:53:42.488Z,4.87
2022-10-30T07:58:45.573Z,4.30
2022-10-30T08:03:47.212Z,4.25
2022-10-30T08:08:48.444Z,3.43
2022-10-30T08:13:49.673Z,3.60
2022-10-30T08:18:50.915Z,3.95
2022-10-30T08:23:52.383Z,3.63
2022-10-30T08:28:53.621Z,3.90
2022-10-30T08:33:54.935Z,3.33
2022-10-30T08:38:56.300Z,4.17
2022-10-30T08:43:57.551Z,3.70
2022-10-30T08:48:58.936Z,3.75
2022-10-30T08:54:00.391Z,3.50
2022-10-30T08:59:01.618Z,3.42
2022-10-30T09:04:02.964Z,3.25
2022-10-30T09:09:04.244Z,3.00
2022-10-30T09:14:05.522Z,3.57
2022-10-30T09:19:06.744Z,3.45
2022-10-30T09:24:07.995Z,4.07
2022-10-30T09:29:09.224Z,3.57
2022-10-30T09:34:10.478Z,3.65
2022-10-30T09:39:11.959Z,3.28
2022-10-30T09:44:16.104Z,3.80
2022-10-30T09:49:40.626Z,3.30
2022-10-30T09:54:41.850Z,3.47
2022-10-30T09:59:43.074Z,3.20
2022-10-30T10:04:47.118Z,3.57
2022-10-30T10:09:49.561Z,3.97
2022-10-30T10:14:51.288Z,5.38
2022-10-30T10:19:59.281Z,3.20
2022-10-30T10:25:02.634Z,3.40
2022-10-30T10:30:03.947Z,3.47
2022-10-30T10:35:20.739Z,3.60
2022-10-30T10:40:26.543Z,3.80
2022-10-30T10:45:40.744Z,3.55
2022-10-30T10:50:46.535Z,2.80
2022-10-30T10:55:49.807Z,3.43
2022-10-30T11:00:51.796Z,3.15
2022-10-30T11:05:59.123Z,3.35
2022-10-30T11:11:01.461Z,2.93
2022-10-30T11:16:21.731Z,3.22
2022-10-30T11:21:24.182Z,3.25
2022-10-30T11:26:27.009Z,3.37
2022-10-30T11:31:34.685Z,2.83
2022-10-30T11:36:35.921Z,3.00
2022-10-30T11:41:38.021Z,3.10
2022-10-30T11:46:39.304Z,3.37
2022-10-30T11:51:40.722Z,3.30
2022-10-30T11:56:46.167Z,3.50
2022-10-30T12:02:01.669Z,3.20
2022-10-30T12:07:20.502Z,2.90
2022-10-30T12:12:37.951Z,3.00
2022-10-30T12:17:40.026Z,2.77
2022-10-30T12:22:41.764Z,2.65
2022-10-30T12:27:43.060Z,3.22
2022-10-30T12:32:58.863Z,3.30
2022-10-30T12:38:01.291Z,3.40
2022-10-30T12:43:05.449Z,3.08
2022-10-30T12:48:25.383Z,3.65
2022-10-30T12:53:29.046Z,2.67
2022-10-30T12:58:48.937Z,3.20
2022-10-30T13:04:00.050Z,2.72
2022-10-30T13:09:20.237Z,3.13
2022-10-30T13:14:34.317Z,3.10
2022-10-30T13:19:35.589Z,3.33
2022-10-30T13:24:39.570Z,3.20
2022-10-30T13:29:44.912Z,3.37
2022-10-30T13:34:46.176Z,3.35
2022-10-30T13:39:53.581Z,3.65
2022-10-30T13:45:00.929Z,3.40
2022-10-30T13:50:09.086Z,3.20
2022-10-30T13:55:17.771Z,3.53
2022-10-30T14:00:27.914Z,3.17
2022-10-30T14:05:39.392Z,2.90
2022-10-30T14:10:46.448Z,4.10
2022-10-30T14:15:47.774Z,3.90
2022-10-30T14:20:49.649Z,3.67
2022-10-30T14:26:14.287Z,3.70
2022-10-30T14:31:17.425Z,2.72
2022-10-30T14:36:21.568Z,2.70
2022-10-30T14:41:31.946Z,3.40
2022-10-30T14:46:42.466Z,3.45
2022-10-30T14:51:54.254Z,3.27
2022-10-30T14:56:55.488Z,3.47
2022-10-30T15:02:15.487Z,3.83
2022-10-30T15:07:22.573Z,4.70
2022-10-30T15:12:42.647Z,4.00
2022-10-30T15:17:45.469Z,3.95
2022-10-30T15:22:48.244Z,3.75
2022-10-30T15:27:53.808Z,4.50
2022-10-30T15:32:55.093Z,6.15
2022-10-30T15:38:06.639Z,5.03
2022-10-30T15:43:11.299Z,4.10
2022-10-30T15:48:26.781Z,3.72
2022-10-30T15:53:43.081Z,3.38
2022-10-30T15:58:48.594Z,4.73
2022-10-30T16:03:53.885Z,4.33
2022-10-30T16:08:55.389Z,4.63
2022-10-30T16:13:56.684Z,5.00
2022-10-30T16:18:59.833Z,6.87
2022-10-30T16:24:02.452Z,5.10
2022-10-30T16:29:12.988Z,5.15
2022-10-30T16:34:19.055Z,4.97
2022-10-30T16:39:21.179Z,5.10
2022-10-30T16:44:29.778Z,5.82
2022-10-30T16:49:32.231Z,5.70
2022-10-30T16:54:36.805Z,4.87
2022-10-30T16:59:43.958Z,5.40
2022-10-30T17:04:46.903Z,5.70
2022-10-30T17:09:48.949Z,5.67
2022-10-30T17:14:54.310Z,5.68
2022-10-30T17:19:59.607Z,6.18
2022-10-30T17:25:01.003Z,6.10
2022-10-30T17:30:02.595Z,6.95
2022-10-30T17:35:14.413Z,6.78
2022-10-30T17:40:18.076Z,9.33
2022-10-30T17:45:19.405Z,6.53
2022-10-30T17:50:20.711Z,6.30
2022-10-30T17:55:23.691Z,6.40
2022-10-30T18:00:24.953Z,6.70
2022-10-30T18:05:28.774Z,7.97
2022-10-30T18:10:30.140Z,7.10
2022-10-30T18:15:54.765Z,6.27
2022-10-30T18:20:56.012Z,6.75
2022-10-30T18:25:57.350Z,6.68
2022-10-30T18:31:01.041Z,6.53
2022-10-30T18:36:02.324Z,7.47
2022-10-30T18:41:03.883Z,6.63
2022-10-30T18:46:05.261Z,8.57
2022-10-30T18:51:10.544Z,10.70
2022-10-30T18:56:11.817Z,6.70
2022-10-30T19:01:13.876Z,8.30
2022-10-30T19:06:16.485Z,7.30
2022-10-30T19:11:24.046Z,7.53
2022-10-30T19:16:26.824Z,7.40
2022-10-30T19:21:28.185Z,7.05
2022-10-30T19:26:29.456Z,6.65
2022-10-30T19:31:30.691Z,6.83
2022-10-30T19:36:34.371Z,6.50
2022-10-30T19:41:35.897Z,8.77
2022-10-30T19:46:37.185Z,7.40
2022-10-30T19:51:38.399Z,9.45
2022-10-30T19:56:39.742Z,7.93
2022-10-30T20:01:41.628Z,9.30
2022-10-30T20:06:43.279Z,8.73
2022-10-30T20:11:44.641Z,7.80
2022-10-30T20:16:45.931Z,7.63
2022-10-30T20:21:47.162Z,7.18
2022-10-30T20:26:48.716Z,6.87
2022-10-30T20:31:50.179Z,6.40
2022-10-30T20:36:51.482Z,6.60
2022-10-30T20:41:52.763Z,6.20
2022-10-30T20:46:54.013Z,6.53
2022-10-30T20:51:55.263Z,6.38
2022-10-30T20:56:56.495Z,7.70
2022-10-30T21:02:00.737Z,8.10
2022-10-30T21:07:02.052Z,6.97
2022-10-30T21:12:03.406Z,6.13
2022-10-30T21:17:04.664Z,7.20
2022-10-30T21:22:05.924Z,6.32
2022-10-30T21:27:07.195Z,5.77
2022-10-30T21:32:08.668Z,6.18
2022-10-30T21:37:09.997Z,5.53
2022-10-30T21:42:11.257Z,5.97
2022-10-30T21:47:13.577Z,5.20
2022-10-30T21:52:14.809Z,5.70
2022-10-30T21:57:16.056Z,5.73
2022-10-30T22:02:17.458Z,5.70
2022-10-30T22:07:19.089Z,4.87
2022-10-30T22:12:20.393Z,4.77
2022-10-30T22:17:21.659Z,5.47
2022-10-30T22:22:22.930Z,5.33
2022-10-30T22:27:24.180Z,5.13
2022-10-30T22:32:26.129Z,4.47
2022-10-30T22:37:27.379Z,5.13
2022-10-30T22:42:28.607Z,4.65
2022-10-30T22:47:29.873Z,4.38
2022-10-30T22:52:33.494Z,4.73
2022-10-30T22:57:34.806Z,4.20
2022-10-30T23:02:36.084Z,3.90
2022-10-30T23:07:37.367Z,4.13
2022-10-30T23:12:38.607Z,4.82
2022-10-30T23:17:39.976Z,4.23
2022-10-30T23:22:41.201Z,3.73
2022-10-30T23:27:42.452Z,4.10
2022-10-30T23:32:43.672Z,3.70
2022-10-30T23:37:44.879Z,4.45
2022-10-30T23:42:46.097Z,4.30
2022-10-30T23:47:47.455Z,4.40
2022-10-30T23:52:48.754Z,3.95
2022-10-30T23:57:50.048Z,3.63
